createdAt,value
2023-02-23T00:00:44.750Z,68.14
2023-02-23T00:03:35.741Z,68.15
2023-02-23T00:06:32.894Z,68.26
2023-02-23T00:09:35.801Z,67.80
2023-02-23T00:12:27.024Z,68.37
2023-02-23T00:15:16.764Z,68.73
2023-02-23T00:18:06.488Z,68.86
2023-02-23T00:21:00.402Z,68.38
2023-02-23T00:23:51.879Z,69.07
2023-02-23T00:26:43.262Z,69.21
2023-02-23T00:29:38.602Z,69.19
2023-02-23T00:32:28.031Z,69.50
2023-02-23T00:35:20.641Z,68.57
2023-02-23T00:38:11.786Z,69.81
2023-02-23T00:41:01.027Z,70.56
2023-02-23T00:43:50.672Z,69.67
2023-02-23T00:46:40.860Z,70.18
2023-02-23T00:49:30.093Z,69.97
2023-02-23T00:52:19.343Z,69.69
2023-02-23T00:55:16.442Z,70.48
2023-02-23T00:58:06.671Z,70.91
2023-02-23T01:00:56.611Z,70.88
2023-02-23T01:03:47.594Z,70.90
2023-02-23T01:06:38.317Z,71.72
2023-02-23T01:09:29.497Z,70.49
2023-02-23T01:12:20.191Z,70.31
2023-02-23T01:15:12.160Z,70.94
2023-02-23T01:18:01.627Z,70.93
2023-02-23T01:20:51.062Z,70.04
2023-02-23T01:23:40.436Z,70.04
2023-02-23T01:26:34.164Z,69.59
2023-02-23T01:29:25.493Z,69.10
2023-02-23T01:32:14.969Z,69.04
2023-02-23T01:35:06.237Z,68.80
2023-02-23T01:37:55.516Z,68.64
2023-02-23T01:40:47.412Z,69.05
2023-02-23T01:43:37.311Z,68.60
2023-02-23T01:46:28.652Z,68.57
2023-02-23T01:49:21.928Z,68.42
2023-02-23T01:52:14.765Z,68.47
2023-02-23T01:55:05.807Z,68.36
2023-02-23T01:58:02.268Z,68.80
2023-02-23T02:00:56.132Z,68.88
2023-02-23T02:03:52.985Z,68.54
2023-02-23T02:06:42.335Z,69.32
2023-02-23T02:09:37.935Z,69.16
2023-02-23T02:12:27.209Z,69.28
2023-02-23T02:15:18.204Z,69.50
2023-02-23T02:18:23.496Z,69.38
2023-02-23T02:22:27.382Z,68.77
2023-02-23T02:25:38.351Z,68.50
2023-02-23T02:29:00.843Z,69.30
2023-02-23T02:32:33.094Z,69.37
2023-02-23T02:35:58.910Z,69.45
2023-02-23T02:39:01.098Z,69.44
2023-02-23T02:41:58.514Z,69.85
2023-02-23T02:44:57.362Z,69.32
2023-02-23T02:47:54.567Z,70.07
2023-02-23T02:50:50.277Z,70.76
2023-02-23T02:53:49.899Z,71.76
2023-02-23T02:56:44.518Z,71.53
2023-02-23T03:00:00.587Z,71.19
2023-02-23T03:03:08.104Z,71.09
2023-02-23T03:06:14.676Z,71.52
2023-02-23T03:09:30.436Z,71.03
2023-02-23T03:12:49.887Z,70.72
2023-02-23T03:16:14.363Z,70.61
2023-02-23T03:19:34.489Z,70.56
2023-02-23T03:22:48.914Z,70.51
2023-02-23T03:26:10.004Z,71.54
2023-02-23T03:29:28.153Z,71.32
2023-02-23T03:35:46.276Z,71.06
2023-02-23T03:39:00.595Z,70.44
2023-02-23T03:42:10.782Z,70.45
2023-02-23T03:45:27.123Z,71.27
2023-02-23T03:48:38.546Z,71.76
2023-02-23T03:51:49.454Z,71.89
2023-02-23T03:55:03.510Z,72.79
2023-02-23T03:58:15.491Z,72.42
2023-02-23T04:01:26.350Z,71.93
2023-02-23T04:04:32.832Z,72.01
2023-02-23T04:07:41.252Z,73.20
2023-02-23T04:10:50.130Z,72.48
2023-02-23T04:13:40.242Z,72.54
2023-02-23T04:16:30.581Z,73.13
2023-02-23T04:19:19.886Z,73.30
2023-02-23T04:22:09.125Z,73.35
2023-02-23T04:25:00.034Z,72.96
2023-02-23T04:27:49.319Z,72.41
2023-02-23T04:30:38.536Z,72.77
2023-02-23T04:33:27.862Z,72.48
2023-02-23T04:36:17.529Z,72.27
2023-02-23T04:39:06.682Z,72.31
2023-02-23T04:41:57.326Z,72.67
2023-02-23T04:44:46.700Z,71.98
2023-02-23T04:47:35.946Z,72.43
2023-02-23T04:50:25.204Z,72.45
2023-02-23T04:53:14.435Z,72.44
2023-02-23T04:56:04.349Z,71.65
2023-02-23T04:58:54.994Z,71.30
2023-02-23T05:01:44.263Z,71.60
2023-02-23T05:04:35.390Z,72.31
2023-02-23T05:07:24.726Z,71.72
2023-02-23T05:10:14.503Z,72.31
2023-02-23T05:13:03.796Z,71.70
2023-02-23T05:15:58.789Z,71.09
2023-02-23T05:18:48.855Z,71.17
2023-02-23T05:21:38.747Z,71.68
2023-02-23T05:24:27.947Z,71.26
2023-02-23T05:27:17.964Z,71.32
2023-02-23T05:30:10.084Z,71.30
2023-02-23T05:33:00.846Z,70.85
2023-02-23T05:35:50.240Z,71.48
2023-02-23T05:38:39.800Z,71.36
2023-02-23T05:41:29.025Z,71.07
2023-02-23T05:44:18.346Z,71.02
2023-02-23T05:47:07.579Z,71.45
2023-02-23T05:49:58.837Z,70.92
2023-02-23T05:52:52.331Z,71.06
2023-02-23T05:55:44.716Z,70.88
2023-02-23T05:58:35.665Z,70.90
2023-02-23T06:01:26.447Z,70.84
2023-02-23T06:04:17.381Z,70.53
2023-02-23T06:07:08.150Z,71.17
2023-02-23T06:10:04.590Z,71.62
2023-02-23T06:12:53.906Z,71.30
2023-02-23T06:15:43.951Z,71.52
2023-02-23T06:18:40.814Z,70.76
2023-02-23T06:21:30.102Z,71.32
2023-02-23T06:24:24.443Z,71.17
2023-02-23T06:27:14.221Z,72.10
2023-02-23T06:30:03.570Z,72.03
2023-02-23T06:32:55.130Z,72.77
2023-02-23T06:35:44.730Z,72.64
2023-02-23T06:38:34.547Z,72.66
2023-02-23T06:41:25.875Z,72.27
2023-02-23T06:44:16.373Z,71.96
2023-02-23T06:47:09.167Z,71.57
2023-02-23T06:50:00.073Z,72.21
2023-02-23T06:52:51.683Z,72.26
2023-02-23T06:55:43.820Z,72.78
2023-02-23T06:58:34.412Z,73.41
2023-02-23T07:01:24.342Z,73.66
2023-02-23T07:04:16.359Z,73.52
2023-02-23T07:07:06.600Z,73.77
2023-02-23T07:09:56.060Z,74.35
2023-02-23T07:12:49.483Z,74.16
2023-02-23T07:15:41.858Z,74.23
2023-02-23T07:18:37.158Z,74.15
2023-02-23T07:21:26.376Z,74.61
2023-02-23T07:24:15.616Z,74.24
2023-02-23T07:27:05.226Z,74.28
2023-02-23T07:29:54.788Z,74.66
2023-02-23T07:32:45.785Z,74.31
2023-02-23T07:35:38.452Z,74.67
2023-02-23T07:38:30.060Z,75.55
2023-02-23T07:41:19.986Z,75.49
2023-02-23T07:44:11.286Z,76.02
2023-02-23T07:47:02.448Z,75.56
2023-02-23T07:49:53.174Z,75.55
2023-02-23T07:52:44.512Z,76.35
2023-02-23T07:55:33.791Z,76.11
2023-02-23T07:58:23.363Z,76.49
2023-02-23T08:01:14.066Z,76.50
2023-02-23T08:04:03.465Z,76.76
2023-02-23T08:06:55.245Z,76.54
2023-02-23T08:09:44.479Z,76.78
2023-02-23T08:12:34.792Z,76.21
2023-02-23T08:15:24.155Z,76.65
2023-02-23T08:18:16.303Z,76.59
2023-02-23T08:21:07.819Z,76.25
2023-02-23T08:23:58.987Z,76.65
2023-02-23T08:26:50.591Z,76.67
2023-02-23T08:29:39.818Z,76.74
2023-02-23T08:32:29.967Z,76.54
2023-02-23T08:35:20.334Z,76.07
2023-02-23T08:38:09.641Z,76.38
2023-02-23T08:41:03.039Z,75.97
2023-02-23T08:43:52.588Z,75.86
2023-02-23T08:46:41.938Z,76.12
2023-02-23T08:49:31.492Z,75.80
2023-02-23T08:52:21.193Z,75.97
2023-02-23T08:55:11.944Z,76.22
2023-02-23T08:58:02.796Z,76.19
2023-02-23T09:00:52.282Z,76.08
2023-02-23T09:03:42.022Z,75.89
2023-02-23T09:06:31.888Z,75.94
2023-02-23T09:09:21.137Z,76.04
2023-02-23T09:12:10.767Z,76.02
2023-02-23T09:15:02.397Z,76.29
2023-02-23T09:17:51.957Z,75.75
2023-02-23T09:20:44.036Z,75.82
2023-02-23T09:23:33.314Z,76.20
2023-02-23T09:26:23.141Z,75.65
2023-02-23T09:29:12.373Z,75.79
2023-02-23T09:32:02.983Z,75.23
2023-02-23T09:34:52.633Z,74.92
2023-02-23T09:37:41.840Z,74.21
2023-02-23T09:40:39.344Z,74.62
2023-02-23T09:43:35.354Z,74.68
2023-02-23T09:46:34.339Z,74.39
2023-02-23T09:49:29.463Z,73.95
2023-02-23T09:52:24.766Z,74.30
2023-02-23T09:55:15.673Z,73.63
2023-02-23T09:58:17.245Z,73.14
2023-02-23T10:01:51.248Z,73.60
2023-02-23T10:04:44.913Z,74.07
2023-02-23T10:07:44.614Z,72.78
2023-02-23T10:10:42.952Z,73.56
2023-02-23T10:13:45.229Z,72.66
2023-02-23T10:16:47.419Z,72.07
2023-02-23T10:19:48.050Z,71.50
2023-02-23T10:22:39.049Z,72.21
2023-02-23T10:25:33.041Z,71.58
2023-02-23T10:28:23.784Z,70.68
2023-02-23T10:31:29.322Z,71.12
2023-02-23T10:34:21.837Z,71.15
2023-02-23T10:37:15.710Z,71.37
2023-02-23T10:40:05.555Z,69.52
2023-02-23T10:42:55.564Z,69.79
2023-02-23T10:45:51.088Z,69.46
2023-02-23T10:48:43.839Z,68.48
2023-02-23T10:51:38.613Z,69.78
2023-02-23T10:54:47.705Z,69.54
2023-02-23T10:57:41.454Z,68.44
2023-02-23T11:00:33.334Z,67.80
2023-02-23T11:03:33.403Z,67.56
2023-02-23T11:06:32.344Z,66.87
2023-02-23T11:09:43.200Z,67.91
2023-02-23T11:12:42.078Z,67.42
2023-02-23T11:15:49.941Z,58.82
2023-02-23T11:18:43.191Z,55.12
2023-02-23T11:21:34.826Z,61.20
2023-02-23T11:24:27.629Z,53.33
2023-02-23T11:27:25.024Z,49.70
2023-02-23T11:30:17.414Z,45.76
2023-02-23T11:33:11.054Z,48.32
2023-02-23T11:36:02.476Z,48.33
2023-02-23T11:39:19.340Z,45.61
2023-02-23T11:42:20.842Z,43.63
2023-02-23T11:45:23.987Z,43.57
2023-02-23T11:48:23.496Z,42.71
2023-02-23T11:51:13.540Z,42.34
2023-02-23T11:54:05.734Z,38.32
2023-02-23T11:56:58.143Z,37.49
2023-02-23T11:59:48.134Z,36.90
2023-02-23T12:02:53.822Z,37.09
2023-02-23T12:05:51.269Z,35.48
2023-02-23T12:08:48.729Z,33.89
2023-02-23T12:11:45.341Z,34.95
2023-02-23T12:14:42.352Z,33.70
2023-02-23T12:17:41.273Z,33.35
2023-02-23T12:20:37.126Z,33.59
2023-02-23T12:23:31.765Z,33.90
2023-02-23T12:26:24.036Z,33.50
2023-02-23T12:29:25.118Z,32.83
2023-02-23T12:32:19.248Z,32.29
2023-02-23T12:35:17.847Z,32.18
2023-02-23T12:38:16.601Z,32.43
2023-02-23T12:41:13.000Z,32.54
2023-02-23T12:44:13.405Z,32.40
2023-02-23T12:47:10.403Z,30.31
2023-02-23T12:50:07.509Z,31.96
2023-02-23T12:53:02.647Z,30.21
2023-02-23T12:56:10.680Z,28.25
2023-02-23T12:59:16.277Z,29.24
2023-02-23T13:02:13.768Z,31.20
2023-02-23T13:05:24.467Z,30.58
2023-02-23T13:08:25.789Z,31.04
2023-02-23T13:11:28.076Z,32.37
2023-02-23T13:14:28.083Z,32.41
2023-02-23T13:17:39.343Z,32.32
2023-02-23T13:20:36.671Z,32.83
2023-02-23T13:23:36.150Z,32.51
2023-02-23T13:26:36.141Z,32.70
2023-02-23T13:29:40.094Z,32.61
2023-02-23T13:32:36.337Z,32.52
2023-02-23T13:35:27.242Z,33.46
2023-02-23T13:38:21.200Z,33.30
2023-02-23T13:41:29.487Z,32.98
2023-02-23T13:44:29.605Z,33.37
2023-02-23T13:47:35.960Z,33.34
2023-02-23T13:50:32.559Z,33.10
2023-02-23T13:53:41.047Z,33.00
2023-02-23T13:56:38.331Z,32.80
2023-02-23T13:59:33.414Z,32.78
2023-02-23T14:02:36.662Z,33.24
2023-02-23T14:05:27.840Z,32.83
2023-02-23T14:08:32.644Z,33.68
2023-02-23T14:11:52.066Z,34.02
2023-02-23T14:14:44.899Z,34.86
2023-02-23T14:17:43.946Z,35.51
2023-02-23T14:20:56.365Z,36.86
2023-02-23T14:24:14.352Z,37.03
2023-02-23T14:27:45.124Z,37.19
2023-02-23T14:30:51.015Z,37.30
2023-02-23T14:33:57.718Z,38.23
2023-02-23T14:36:47.169Z,38.51
2023-02-23T14:39:36.772Z,39.51
2023-02-23T14:42:28.235Z,39.63
2023-02-23T14:45:27.331Z,40.03
2023-02-23T14:48:17.189Z,40.05
2023-02-23T14:51:23.035Z,39.91
2023-02-23T14:54:16.781Z,39.90
2023-02-23T14:57:08.710Z,40.41
2023-02-23T15:00:00.973Z,40.59
2023-02-23T15:03:01.819Z,40.73
2023-02-23T15:05:57.436Z,40.83
2023-02-23T15:08:47.076Z,41.08
2023-02-23T15:11:37.272Z,41.38
2023-02-23T15:14:28.415Z,42.21
2023-02-23T15:17:22.030Z,42.31
2023-02-23T15:20:17.999Z,42.31
2023-02-23T15:23:08.315Z,42.22
2023-02-23T15:25:57.759Z,42.40
2023-02-23T15:28:48.435Z,42.43
2023-02-23T15:31:41.293Z,43.61
2023-02-23T15:34:31.699Z,43.62
2023-02-23T15:37:32.041Z,43.23
2023-02-23T15:40:25.751Z,43.73
2023-02-23T15:43:15.011Z,44.05
2023-02-23T15:46:07.195Z,44.26
2023-02-23T15:49:03.382Z,45.10
2023-02-23T15:51:59.799Z,45.77
2023-02-23T15:55:00.226Z,46.21
2023-02-23T15:57:55.948Z,46.84
2023-02-23T16:00:51.508Z,46.90
2023-02-23T16:03:47.249Z,46.87
2023-02-23T16:06:39.747Z,47.70
2023-02-23T16:09:31.310Z,47.50
2023-02-23T16:12:26.150Z,47.64
2023-02-23T16:15:26.529Z,48.76
2023-02-23T16:18:20.153Z,48.83
2023-02-23T16:21:17.213Z,49.53
2023-02-23T16:24:11.719Z,49.88
2023-02-23T16:27:02.659Z,50.09
2023-02-23T16:30:01.296Z,51.04
2023-02-23T16:33:04.046Z,51.41
2023-02-23T16:36:06.464Z,51.59
2023-02-23T16:39:01.481Z,52.58
2023-02-23T16:41:51.243Z,52.18
2023-02-23T16:44:43.636Z,52.28
2023-02-23T16:47:43.703Z,52.44
2023-02-23T16:50:36.383Z,52.23
2023-02-23T16:53:25.600Z,52.57
2023-02-23T16:56:19.120Z,52.71
2023-02-23T16:59:09.695Z,53.61
2023-02-23T17:01:58.879Z,53.20
2023-02-23T17:04:50.161Z,53.66
2023-02-23T17:07:39.583Z,53.29
2023-02-23T17:10:33.066Z,53.37
2023-02-23T17:13:24.773Z,53.44
2023-02-23T17:16:15.353Z,54.08
2023-02-23T17:19:04.565Z,54.70
2023-02-23T17:21:55.115Z,54.57
2023-02-23T17:24:45.145Z,55.21
2023-02-23T17:27:34.569Z,54.70
2023-02-23T17:30:25.094Z,55.16
2023-02-23T17:33:14.709Z,55.71
2023-02-23T17:36:07.829Z,56.68
2023-02-23T17:38:58.781Z,57.01
2023-02-23T17:41:48.187Z,56.14
2023-02-23T17:44:37.405Z,56.65
2023-02-23T17:47:26.717Z,57.10
2023-02-23T17:50:16.262Z,58.14
2023-02-23T17:53:05.664Z,58.80
2023-02-23T17:55:57.225Z,58.77
2023-02-23T17:58:48.023Z,58.89
2023-02-23T18:01:37.831Z,59.87
2023-02-23T18:04:27.142Z,59.67
2023-02-23T18:07:16.749Z,60.16
2023-02-23T18:10:07.879Z,59.63
2023-02-23T18:12:58.498Z,60.92
2023-02-23T18:15:52.294Z,60.24
2023-02-23T18:18:45.731Z,60.53
2023-02-23T18:21:39.438Z,61.17
2023-02-23T18:24:31.985Z,60.50
2023-02-23T18:27:21.264Z,60.74
2023-02-23T18:30:14.430Z,61.03
2023-02-23T18:33:03.480Z,61.22
2023-02-23T18:35:52.867Z,60.58
2023-02-23T18:38:42.088Z,60.73
2023-02-23T18:41:31.824Z,61.02
2023-02-23T18:44:22.025Z,60.87
2023-02-23T18:47:13.007Z,61.54
2023-02-23T18:50:02.224Z,61.58
2023-02-23T18:52:52.080Z,61.75
2023-02-23T18:55:42.100Z,61.85
2023-02-23T18:58:31.371Z,62.04
2023-02-23T19:01:24.407Z,62.04
2023-02-23T19:04:16.359Z,62.09
2023-02-23T19:07:05.587Z,62.63
2023-02-23T19:09:54.862Z,62.59
2023-02-23T19:12:44.609Z,63.60
2023-02-23T19:15:33.923Z,63.26
2023-02-23T19:18:23.648Z,62.90
2023-02-23T19:21:14.514Z,62.75
2023-02-23T19:24:05.286Z,62.83
2023-02-23T19:26:54.511Z,63.31
2023-02-23T19:29:44.397Z,63.01
2023-02-23T19:32:33.881Z,63.63
2023-02-23T19:35:24.390Z,63.93
2023-02-23T19:38:16.968Z,63.75
2023-02-23T19:41:07.231Z,64.03
2023-02-23T19:43:58.496Z,64.52
2023-02-23T19:46:47.799Z,64.43
2023-02-23T19:49:37.079Z,64.75
2023-02-23T19:52:28.923Z,64.61
2023-02-23T19:55:20.380Z,64.49
2023-02-23T19:58:10.444Z,64.80
2023-02-23T20:01:05.363Z,65.19
2023-02-23T20:03:56.807Z,65.09
2023-02-23T20:06:47.309Z,65.36
2023-02-23T20:09:37.484Z,65.74
2023-02-23T20:12:28.754Z,65.95
2023-02-23T20:15:18.009Z,66.30
2023-02-23T20:18:08.138Z,66.43
2023-02-23T20:20:57.450Z,66.48
2023-02-23T20:23:50.353Z,67.17
2023-02-23T20:26:39.814Z,66.90
2023-02-23T20:29:30.613Z,67.28
2023-02-23T20:32:21.082Z,67.24
2023-02-23T20:35:13.131Z,67.79
2023-02-23T20:38:04.317Z,67.06
2023-02-23T20:40:54.679Z,67.58
2023-02-23T20:43:44.941Z,67.89
2023-02-23T20:46:35.833Z,68.16
2023-02-23T20:49:27.554Z,67.94
2023-02-23T20:52:17.005Z,68.81
2023-02-23T20:55:08.135Z,68.61
2023-02-23T20:57:58.909Z,69.02
2023-02-23T21:00:49.221Z,69.63
2023-02-23T21:03:39.961Z,69.58
2023-02-23T21:06:31.763Z,69.80
2023-02-23T21:09:22.344Z,70.08
2023-02-23T21:12:12.704Z,70.28
2023-02-23T21:15:04.586Z,70.55
2023-02-23T21:17:54.576Z,70.55
2023-02-23T21:20:47.012Z,71.17
2023-02-23T21:23:36.815Z,70.45
2023-02-23T21:26:26.072Z,70.89
2023-02-23T21:29:16.858Z,71.25
2023-02-23T21:32:07.633Z,70.69
2023-02-23T21:34:59.354Z,70.76
2023-02-23T21:37:53.039Z,71.19
2023-02-23T21:40:45.578Z,70.62
2023-02-23T21:43:39.487Z,71.24
2023-02-23T21:46:30.615Z,71.54
2023-02-23T21:49:21.455Z,71.49
2023-02-23T21:52:13.818Z,71.97
2023-02-23T21:55:08.043Z,71.58
2023-02-23T21:57:59.896Z,72.23
2023-02-23T22:00:50.716Z,72.54
2023-02-23T22:03:45.228Z,72.84
2023-02-23T22:06:41.749Z,72.89
2023-02-23T22:09:31.231Z,73.27
2023-02-23T22:12:21.892Z,73.15
2023-02-23T22:15:12.682Z,73.49
2023-02-23T22:18:05.270Z,73.33
2023-02-23T22:21:01.508Z,74.15
2023-02-23T22:23:54.355Z,74.06
2023-02-23T22:26:50.695Z,74.22
2023-02-23T22:29:41.487Z,74.04
2023-02-23T22:32:33.157Z,74.03
2023-02-23T22:35:23.402Z,74.78
2023-02-23T22:38:13.784Z,74.69
2023-02-23T22:41:05.471Z,74.72
2023-02-23T22:43:58.745Z,74.88
2023-02-23T22:46:50.177Z,75.02
2023-02-23T22:49:43.142Z,74.98
2023-02-23T22:52:34.766Z,75.05
2023-02-23T22:55:29.395Z,75.02
2023-02-23T22:58:23.249Z,75.41
2023-02-23T23:01:22.244Z,75.54
2023-02-23T23:04:14.949Z,75.61
2023-02-23T23:07:04.598Z,75.47
2023-02-23T23:09:53.958Z,75.74
2023-02-23T23:12:45.449Z,75.81
2023-02-23T23:15:34.703Z,75.77
2023-02-23T23:18:24.643Z,75.98
2023-02-23T23:21:21.940Z,75.92
2023-02-23T23:24:15.286Z,76.65
2023-02-23T23:27:08.279Z,76.77
2023-02-23T23:29:58.508Z,76.28
2023-02-23T23:32:47.933Z,76.41
2023-02-23T23:35:38.182Z,76.96
2023-02-23T23:38:28.885Z,76.86
2023-02-23T23:41:21.056Z,77.61
2023-02-23T23:44:13.376Z,78.11
2023-02-23T23:47:05.507Z,77.34
2023-02-23T23:49:56.109Z,77.71
2023-02-23T23:52:47.543Z,77.55
2023-02-23T23:55:38.233Z,77.36
2023-02-23T23:58:27.460Z,77.36
